Aviation Digital Data Service (ADDS)

Output produced by METARs form (1127 UTC 21 April 2018)
found at http://aviationweather.gov/adds/metars/
 
KCLE 210852Z 2109/2212 00000KT P6SM SCT250 
     FM211900 01007KT P6SM BKN200 
     FM220200 VRB03KT P6SM BKN100 
     FM220700 00000KT P6SM SCT140